DAUU

Ain el Beida Airport

Ouargla, Algeria
TAF DAUU 182000Z 1821/1906 30008KT 8000 FEW040 PROB30 TEMPO 1821/1824 5000 HZ
Issued Valid From Valid To
Jul-18 @ 20:00 UTC
(2 hours ago)
Jul-18 @ 21:00 UTC
(an hour ago)
Jul-19 @ 06:00 UTC
(in 8 hours)
Jul-18 @ 21:00 to Jul-19 @ 06:00
TAF DAUU 182000Z 1821/1906 30008KT 8000 FEW040
Wind Visibility Clouds
300° at 8 knots 7,998 meters
  • Few at 4,000' AGL
Temporary  (Probability 30%) Jul-18 @ 21:00 to Jul-19 @ 00:00
PROB30 TEMPO 1821/1824 5000 HZ
Visibility Conditions
5,005 meters
  • Haze
TAF DAUU 182000Z 1821/1906 30008KT 8000 FEW040 PROB30 TEMPO 1821/1824 5000 HZ
Issued Jul-18 @ 20:00 UTC
(2 hours ago)
Valid From Jul-18 @ 21:00 UTC
(an hour ago)
Valid To Jul-19 @ 06:00 UTC
(in 8 hours)
Jul-18 @ 21:00 - Jul-19 @ 06:00
Wind Visibility
300° at 8 knots 7,998 meters
Clouds
  • Few at 4,000' AGL
Probability 30% Temporary Jul-18 @ 21:00 - Jul-19 @ 00:00
Conditions
  • Haze